Pagina principale
METAR-TAF:

METAR-TAF

Aeroporti :

Troyes, Francia

latitudine: 48-20N, longitudine: 004-01E, altezza: 118 m

Osservazione

Il bollettino è stato emesso 36 minuti fa, alle 16:30 UTC
Vento 10 kt da nord-est, variando fra nord/nord-est e est
Temperature 22°C
Umidità 38%
Pressione 1017 hPa
Visibilità 10 km o più
nessuna nube inferiore a 1500 m e nessun cumulonembo

METAR: LFQB 311630Z AUTO 05010KT 020V080 CAVOK 22/07 Q1017

Ora: 19:06 (17:06 UTC)


TAF: mancante

Osservazioni e previsioni meteorologiche di più di 4000 aeroporti (messaggi METAR e TAF).

Le stazioni disponibili sono rappresentate dai dischi gialli e rossi sulla carta.

Puntare il mouse per vedere il nome della stazione.

Clicca sopra per visualizzare le osservazioni e previsioni meteorologiche.

Per cambiare la mappa : fare clic sui pulsanti verdi con una croce nera per ingrandire, il pulsante verde con un trattino per diminuire, o sulla freccia verde per le mappe adiacenti.


METAR-TAF: